Time;durP1;ratioP1;P1;durP2;ratioP2;P2;SDS_P1;SDS_P2;PMS_P1;PMS_P2;Temp;Humidity;BMP_temperature;BMP_pressure;BME280_temperature;BME280_humidity;BME280_pressure;Samples;Min_cycle;Max_cycle;Signal;HPM_P1;HPM_P2
2022/05/25 00:00:18;;;;;;;;;;;;;;;;;;5037191;28;19905;-42
2022/05/25 00:02:43;;;;;;;;;;;;;;;;;;5036813;28;19975;-42
2022/05/25 00:05:11;;;;;;;;;;;;;;;;;;5037080;28;19925;-42
2022/05/25 00:07:36;;;;;;;;;;;;;;;;;;5037104;28;19913;-42
2022/05/25 00:10:04;;;;;;;;;;;;;;;;;;5036812;28;19913;-41
2022/05/25 00:12:29;;;;;;;;;;;;;;;;;;5036673;28;19967;-43
2022/05/25 00:14:54;;;;;;;;;;;;;;;;;;5037589;28;19909;-41
2022/05/25 00:17:20;;;;;;;;;;;;;;;;;;5036727;28;20309;-43
2022/05/25 00:20:00;;;;;;;;;;;;;;;;;;5036591;28;19909;-42
2022/05/25 00:22:27;;;;;;;;;;;;;;;;;;5036191;28;19909;-42
2022/05/25 00:24:52;;;;;;;;;;;;;;;;;;5036334;28;19914;-43
2022/05/25 00:27:19;;;;;;;;;;;;;;;;;;5036137;28;20287;-42
2022/05/25 00:29:45;;;;;;;;;;;;;;;;;;5036105;28;19929;-42
2022/05/25 00:32:10;;;;;;;;;;;;;;;;;;5036192;28;19916;-42
2022/05/25 00:34:37;;;;;;;;;;;;;;;;;;5035974;28;19909;-42
2022/05/25 00:37:02;;;;;;;;;;;;;;;;;;5036351;28;19909;-42
2022/05/25 00:39:30;;;;;;;;;;;;;;;;;;5036073;28;20364;-42
2022/05/25 00:41:55;;;;;;;;;;;;;;;;;;5036223;28;20003;-42
2022/05/25 00:44:20;;;;;;;;;;;;;;;;;;5036174;28;20351;-42
2022/05/25 00:46:46;;;;;;;;;;;;;;;;;;5036091;28;19983;-42
2022/05/25 00:49:11;;;;;;;;;;;;;;;;;;5036397;28;19964;-42
2022/05/25 00:51:40;;;;;;;;;;;;;;;;;;5036020;28;19916;-42
2022/05/25 00:54:06;;;;;;;;;;;;;;;;;;5035994;28;19979;-42
2022/05/25 00:56:31;;;;;;;;;;;;;;;;;;5035804;28;19910;-42
2022/05/25 00:58:57;;;;;;;;;;;;;;;;;;5035665;28;20429;-41
2022/05/25 01:01:22;;;;;;;;;;;;;;;;;;5035692;28;19988;-42
2022/05/25 01:03:47;;;;;;;;;;;;;;;;;;5035594;28;19916;-42
2022/05/25 01:06:13;;;;;;;;;;;;;;;;;;5035781;28;19910;-42
2022/05/25 01:08:38;;;;;;;;;;;;;;;;;;5035606;28;19920;-42
2022/05/25 01:11:04;;;;;;;;;;;;;;;;;;5035638;28;20339;-42
2022/05/25 01:13:30;;;;;;;;;;;;;;;;;;5035422;28;19916;-42
2022/05/25 01:15:56;;;;;;;;;;;;;;;;;;5035271;28;20352;-41
2022/05/25 01:18:22;;;;;;;;;;;;;;;;;;5035513;28;19909;-42
2022/05/25 01:20:47;;;;;;;;;;;;;;;;;;5035301;28;19917;-42
2022/05/25 01:23:14;;;;;;;;;;;;;;;;;;5035221;28;20339;-42
2022/05/25 01:25:42;;;;;;;;;;;;;;;;;;5035750;28;19975;-42
2022/05/25 01:28:07;;;;;;;;;;;;;;;;;;5042990;22;19925;-42
2022/05/25 01:30:34;;;;;;;;;;;;;;;;;;5035525;28;19975;-41
2022/05/25 01:33:02;;;;;;;;;;;;;;;;;;5034334;28;19906;-42
2022/05/25 01:35:27;;;;;;;;;;;;;;;;;;5035664;28;20351;-42
2022/05/25 01:37:54;;;;;;;;;;;;;;;;;;5035107;28;19948;-42
2022/05/25 01:40:19;;;;;;;;;;;;;;;;;;5035493;28;19956;-42
2022/05/25 01:42:46;;;;;;;;;;;;;;;;;;5035268;28;19909;-42
2022/05/25 01:45:11;;;;;;;;;;;;;;;;;;5035058;28;20462;-41
2022/05/25 01:47:36;;;;;;;;;;;;;;;;;;5035094;28;19999;-42
2022/05/25 01:50:01;;;;;;;;;;;;;;;;;;5035319;28;19995;-42
2022/05/25 01:52:28;;;;;;;;;;;;;;;;;;5035165;28;20055;-41
2022/05/25 01:54:56;;;;;;;;;;;;;;;;;;5035118;28;19941;-42
2022/05/25 01:57:21;;;;;;;;;;;;;;;;;;5035351;28;19912;-42
2022/05/25 01:59:48;;;;;;;;;;;;;;;;;;5036166;28;20522;-41
2022/05/25 02:05:00;;;;;;;;;;;;;;;;;;5035612;28;19912;-41
2022/05/25 02:07:26;;;;;;;;;;;;;;;;;;5035439;28;19909;-41
2022/05/25 02:09:51;;;;;;;;;;;;;;;;;;5035137;28;19924;-41
2022/05/25 02:12:16;;;;;;;;;;;;;;;;;;5035353;28;20380;-41
2022/05/25 02:14:41;;;;;;;;;;;;;;;;;;5035291;28;19909;-41
2022/05/25 02:17:06;;;;;;;;;;;;;;;;;;5034866;28;19910;-41
2022/05/25 02:19:31;;;;;;;;;;;;;;;;;;5035678;28;19968;-42
2022/05/25 02:21:57;;;;;;;;;;;;;;;;;;5034281;28;20012;-41
2022/05/25 02:24:22;;;;;;;;;;;;;;;;;;5034596;28;19999;-43
2022/05/25 02:26:47;;;;;;;;;;;;;;;;;;5035814;28;19913;-41
2022/05/25 02:29:15;;;;;;;;;;;;;;;;;;5037650;28;19921;-42
2022/05/25 02:31:40;;;;;;;;;;;;;;;;;;5038797;28;19913;-42
2022/05/25 02:34:06;;;;;;;;;;;;;;;;;;5038594;28;19916;-42
2022/05/25 02:36:31;;;;;;;;;;;;;;;;;;5038598;28;19909;-41
2022/05/25 02:38:56;;;;;;;;;;;;;;;;;;5038535;28;19955;-42
2022/05/25 02:41:21;;;;;;;;;;;;;;;;;;5038450;28;19964;-41
2022/05/25 02:43:49;;;;;;;;;;;;;;;;;;5038523;28;19963;-42
2022/05/25 02:46:15;;;;;;;;;;;;;;;;;;5038664;28;19909;-42
2022/05/25 02:48:41;;;;;;;;;;;;;;;;;;5038789;28;19917;-41
2022/05/25 02:51:07;;;;;;;;;;;;;;;;;;5038148;28;19915;-41
2022/05/25 02:53:35;;;;;;;;;;;;;;;;;;5038332;28;19909;-42
2022/05/25 02:56:01;;;;;;;;;;;;;;;;;;5037685;28;20272;-42
2022/05/25 02:58:27;;;;;;;;;;;;;;;;;;5038325;28;19917;-41
2022/05/25 03:00:52;;;;;;;;;;;;;;;;;;5038185;28;19925;-42
2022/05/25 03:03:20;;;;;;;;;;;;;;;;;;5038237;28;19912;-41
2022/05/25 03:05:45;;;;;;;;;;;;;;;;;;5038403;28;19909;-41
2022/05/25 03:08:10;;;;;;;;;;;;;;;;;;5037789;28;20258;-42
2022/05/25 03:10:35;;;;;;;;;;;;;;;;;;5037879;28;19920;-43
2022/05/25 03:13:02;;;;;;;;;;;;;;;;;;5039293;28;19992;-42
2022/05/25 03:15:30;;;;;;;;;;;;;;;;;;5038175;28;19936;-42
2022/05/25 03:17:55;;;;;;;;;;;;;;;;;;5037869;28;20369;-41
2022/05/25 03:20:20;;;;;;;;;;;;;;;;;;5037493;28;19910;-41
2022/05/25 03:22:45;;;;;;;;;;;;;;;;;;5037733;28;19915;-42
2022/05/25 03:25:10;;;;;;;;;;;;;;;;;;5037359;28;20008;-42
2022/05/25 03:27:35;;;;;;;;;;;;;;;;;;5038021;28;19917;-42
2022/05/25 03:30:01;;;;;;;;;;;;;;;;;;5037423;28;20017;-41
2022/05/25 03:32:30;;;;;;;;;;;;;;;;;;5037601;28;19913;-42
2022/05/25 03:34:55;;;;;;;;;;;;;;;;;;5037612;28;19909;-42
2022/05/25 03:37:20;;;;;;;;;;;;;;;;;;5037021;28;19916;-41
2022/05/25 03:39:46;;;;;;;;;;;;;;;;;;5037267;28;19913;-41
2022/05/25 03:42:12;;;;;;;;;;;;;;;;;;5037266;28;19909;-41
2022/05/25 03:44:40;;;;;;;;;;;;;;;;;;5037392;28;19913;-42
2022/05/25 03:47:05;;;;;;;;;;;;;;;;;;5037385;28;20292;-42
2022/05/25 03:49:30;;;;;;;;;;;;;;;;;;5037160;28;19913;-41
2022/05/25 03:51:55;;;;;;;;;;;;;;;;;;5037271;28;20299;-41
2022/05/25 03:54:20;;;;;;;;;;;;;;;;;;5036959;28;19909;-42
2022/05/25 03:56:45;;;;;;;;;;;;;;;;;;5037196;28;19963;-42
2022/05/25 03:59:12;;;;;;;;;;;;;;;;;;5037177;28;19916;-41
2022/05/25 04:01:37;;;;;;;;;;;;;;;;;;5036701;28;19909;-42
2022/05/25 04:04:03;;;;;;;;;;;;;;;;;;5036930;28;19909;-42
2022/05/25 04:06:31;;;;;;;;;;;;;;;;;;5036717;28;19916;-41
2022/05/25 04:08:57;;;;;;;;;;;;;;;;;;5036773;28;19913;-41
2022/05/25 04:11:22;;;;;;;;;;;;;;;;;;5036801;28;19915;-41
2022/05/25 04:13:47;;;;;;;;;;;;;;;;;;5036645;28;20348;-42
2022/05/25 04:16:12;;;;;;;;;;;;;;;;;;5036610;28;19910;-41
2022/05/25 04:18:40;;;;;;;;;;;;;;;;;;5036127;28;19916;-41
2022/05/25 04:21:05;;;;;;;;;;;;;;;;;;5036442;28;19917;-42
2022/05/25 04:23:30;;;;;;;;;;;;;;;;;;5036398;28;20345;-42
2022/05/25 04:25:56;;;;;;;;;;;;;;;;;;5036693;28;19913;-42
2022/05/25 04:28:22;;;;;;;;;;;;;;;;;;5036482;28;19921;-41
2022/05/25 04:30:50;;;;;;;;;;;;;;;;;;5036701;28;19909;-42
2022/05/25 04:33:15;;;;;;;;;;;;;;;;;;5036788;28;19913;-42
2022/05/25 04:35:41;;;;;;;;;;;;;;;;;;5036490;28;19937;-41
2022/05/25 04:38:06;;;;;;;;;;;;;;;;;;5036738;28;19909;-41
2022/05/25 04:40:31;;;;;;;;;;;;;;;;;;5036342;28;20273;-42
2022/05/25 04:42:59;;;;;;;;;;;;;;;;;;5036503;28;19963;-42
2022/05/25 04:45:28;;;;;;;;;;;;;;;;;;5036436;28;19910;-42
2022/05/25 04:47:54;;;;;;;;;;;;;;;;;;5035977;28;19958;-42
2022/05/25 04:50:19;;;;;;;;;;;;;;;;;;5035311;28;20372;-42
2022/05/25 04:52:47;;;;;;;;;;;;;;;;;;5036096;28;19917;-41
2022/05/25 04:57:57;;;;;;;;;;;;;;;;;;4975863;28;19949;-43
2022/05/25 05:00:22;;;;;;;;;;;;;;;;;;4975022;28;19937;-42
2022/05/25 05:02:47;;;;;;;;;;;;;;;;;;4975071;28;20388;-41
2022/05/25 05:05:14;;;;;;;;;;;;;;;;;;4975031;28;19910;-42
2022/05/25 05:07:40;;;;;;;;;;;;;;;;;;4975240;28;20361;-42
2022/05/25 05:10:05;;;;;;;;;;;;;;;;;;4974553;28;19925;-41
2022/05/25 05:12:33;;;;;;;;;;;;;;;;;;4974682;28;19921;-42
2022/05/25 05:14:58;;;;;;;;;;;;;;;;;;4974733;28;19910;-42
2022/05/25 05:17:23;;;;;;;;;;;;;;;;;;4974808;28;20001;-42
2022/05/25 05:19:48;;;;;;;;;;;;;;;;;;4975542;28;20008;-42
2022/05/25 05:22:13;;;;;;;;;;;;;;;;;;5007328;28;19909;-43
2022/05/25 05:24:41;;;;;;;;;;;;;;;;;;5035246;28;20359;-42
2022/05/25 05:27:10;;;;;;;;;;;;;;;;;;5035180;28;20012;-42
2022/05/25 05:29:35;;;;;;;;;;;;;;;;;;5035563;28;19923;-42
2022/05/25 05:32:03;;;;;;;;;;;;;;;;;;5035441;28;20007;-42
2022/05/25 05:34:29;;;;;;;;;;;;;;;;;;5026498;28;20445;-42
2022/05/25 05:36:54;;;;;;;;;;;;;;;;;;5021336;28;19913;-41
2022/05/25 05:39:19;;;;;;;;;;;;;;;;;;5029389;28;19913;-42
2022/05/25 05:41:45;;;;;;;;;;;;;;;;;;5029393;28;20327;-42
2022/05/25 05:44:10;;;;;;;;;;;;;;;;;;5012168;28;19917;-42
2022/05/25 05:46:36;;;;;;;;;;;;;;;;;;5024167;28;19921;-41
2022/05/25 05:49:03;;;;;;;;;;;;;;;;;;5026400;28;20358;-42
2022/05/25 05:51:31;;;;;;;;;;;;;;;;;;5021304;28;19922;-42
2022/05/25 05:53:57;;;;;;;;;;;;;;;;;;5029867;28;19979;-42
2022/05/25 05:56:22;;;;;;;;;;;;;;;;;;5011862;28;20006;-42
2022/05/25 05:58:47;;;;;;;;;;;;;;;;;;5005881;28;19921;-42
2022/05/25 06:01:12;;;;;;;;;;;;;;;;;;5005750;28;19942;-42
2022/05/25 06:03:39;;;;;;;;;;;;;;;;;;4997609;28;19976;-43
2022/05/25 06:06:04;;;;;;;;;;;;;;;;;;4999663;28;19920;-41
2022/05/25 06:08:30;;;;;;;;;;;;;;;;;;4989685;28;20616;-41
2022/05/25 06:10:55;;;;;;;;;;;;;;;;;;4965621;28;20683;-42
2022/05/25 06:13:20;;;;;;;;;;;;;;;;;;4977265;28;19921;-42
2022/05/25 06:21:13;;;;;;;;;;;;;;;;;;4817482;28;19936;-41
2022/05/25 06:23:38;;;;;;;;;;;;;;;;;;4758490;28;24650;-43
2022/05/25 06:26:04;;;;;;;;;;;;;;;;;;4690387;28;21528;-43
2022/05/25 06:28:29;;;;;;;;;;;;;;;;;;4514284;28;24601;-42
2022/05/25 06:30:54;;;;;;;;;;;;;;;;;;4528599;28;24568;-43
2022/05/25 06:33:19;;;;;;;;;;;;;;;;;;4669754;28;20679;-42
2022/05/25 06:35:44;;;;;;;;;;;;;;;;;;4699780;28;32930;-41
2022/05/25 06:38:09;;;;;;;;;;;;;;;;;;4721605;28;19929;-41
2022/05/25 06:40:34;;;;;;;;;;;;;;;;;;4805785;28;20093;-42
2022/05/25 06:42:59;;;;;;;;;;;;;;;;;;4826649;28;20059;-42
2022/05/25 06:45:25;;;;;;;;;;;;;;;;;;4810540;28;19932;-42
2022/05/25 06:47:50;;;;;;;;;;;;;;;;;;4786084;28;19922;-42
2022/05/25 06:50:16;;;;;;;;;;;;;;;;;;4831546;28;19987;-42
2022/05/25 06:52:41;;;;;;;;;;;;;;;;;;4807839;28;19921;-42
2022/05/25 06:55:06;;;;;;;;;;;;;;;;;;4792434;28;23067;-42
2022/05/25 06:57:31;;;;;;;;;;;;;;;;;;4801213;28;22806;-42
2022/05/25 06:59:56;;;;;;;;;;;;;;;;;;4824973;28;20705;-43
2022/05/25 07:02:21;;;;;;;;;;;;;;;;;;4802301;28;19931;-43
2022/05/25 07:04:47;;;;;;;;;;;;;;;;;;4790522;28;19925;-42
2022/05/25 07:07:12;;;;;;;;;;;;;;;;;;4774909;28;20759;-42
2022/05/25 07:09:39;;;;;;;;;;;;;;;;;;4724766;28;20934;-42
2022/05/25 07:12:04;;;;;;;;;;;;;;;;;;4690496;28;22617;-42
2022/05/25 07:14:29;;;;;;;;;;;;;;;;;;4678747;28;27458;-43
2022/05/25 07:16:58;;;;;;;;;;;;;;;;;;4668139;28;22803;-43
2022/05/25 07:19:23;;;;;;;;;;;;;;;;;;4583954;28;20907;-47
2022/05/25 07:21:49;;;;;;;;;;;;;;;;;;4427333;28;22792;-45
2022/05/25 07:24:14;;;;;;;;;;;;;;;;;;4282059;28;31873;-47
2022/05/25 07:26:39;;;;;;;;;;;;;;;;;;4559853;28;40761;-46
2022/05/25 07:29:04;;;;;;;;;;;;;;;;;;4651671;28;19936;-47
2022/05/25 07:31:29;;;;;;;;;;;;;;;;;;4690064;28;25849;-45
2022/05/25 07:33:54;;;;;;;;;;;;;;;;;;4725119;28;38096;-46
2022/05/25 07:36:20;;;;;;;;;;;;;;;;;;4753404;28;35829;-46
2022/05/25 07:38:45;;;;;;;;;;;;;;;;;;4751527;28;23982;-45
2022/05/25 07:41:10;;;;;;;;;;;;;;;;;;4727981;28;20988;-47
2022/05/25 07:43:35;;;;;;;;;;;;;;;;;;4729054;28;20459;-47
2022/05/25 07:46:00;;;;;;;;;;;;;;;;;;4749214;28;20939;-46
2022/05/25 07:48:25;;;;;;;;;;;;;;;;;;4736444;28;20553;-47
2022/05/25 07:50:50;;;;;;;;;;;;;;;;;;4763520;28;37901;-47
2022/05/25 07:56:03;;;;;;;;;;;;;;;;;;4732722;28;21871;-47
2022/05/25 07:58:28;;;;;;;;;;;;;;;;;;4690287;28;38861;-47
2022/05/25 08:00:53;;;;;;;;;;;;;;;;;;4658440;28;21393;-45
2022/05/25 08:06:02;;;;;;;;;;;;;;;;;;4728999;28;43273;-46
2022/05/25 08:08:28;;;;;;;;;;;;;;;;;;4700405;28;30893;-48
2022/05/25 08:10:53;;;;;;;;;;;;;;;;;;4630337;28;20232;-45
2022/05/25 08:13:18;;;;;;;;;;;;;;;;;;4447751;28;23045;-47
2022/05/25 08:15:43;;;;;;;;;;;;;;;;;;4586406;28;25620;-45
2022/05/25 08:18:08;;;;;;;;;;;;;;;;;;4670996;28;29128;-45
2022/05/25 08:20:33;;;;;;;;;;;;;;;;;;4729389;28;19917;-46
2022/05/25 08:22:58;;;;;;;;;;;;;;;;;;4725082;28;19998;-47
2022/05/25 08:25:24;;;;;;;;;;;;;;;;;;4715267;28;19925;-44
2022/05/25 08:27:49;;;;;;;;;;;;;;;;;;4547242;28;30379;-47
2022/05/25 08:30:14;;;;;;;;;;;;;;;;;;4354575;28;36154;-46
2022/05/25 08:32:39;;;;;;;;;;;;;;;;;;4401481;28;44894;-46
2022/05/25 08:35:04;;;;;;;;;;;;;;;;;;4491947;28;25727;-45
2022/05/25 08:37:29;;;;;;;;;;;;;;;;;;4706054;28;24869;-45
2022/05/25 08:39:54;;;;;;;;;;;;;;;;;;4713690;28;24502;-47
2022/05/25 08:42:19;;;;;;;;;;;;;;;;;;4713963;28;26200;-46
2022/05/25 08:44:45;;;;;;;;;;;;;;;;;;4668385;28;21353;-47
2022/05/25 08:47:10;;;;;;;;;;;;;;;;;;4711173;28;29565;-46
2022/05/25 08:49:35;;;;;;;;;;;;;;;;;;4720386;28;34351;-48
2022/05/25 08:52:02;;;;;;;;;;;;;;;;;;4722652;28;24595;-45
2022/05/25 08:54:27;;;;;;;;;;;;;;;;;;4665676;28;43559;-46
2022/05/25 08:57:01;;;;;;;;;;;;;;;;;;4654514;28;30470;-47
2022/05/25 08:59:27;;;;;;;;;;;;;;;;;;4649346;28;34148;-47
2022/05/25 09:01:52;;;;;;;;;;;;;;;;;;4670792;28;35503;-47
2022/05/25 09:04:18;;;;;;;;;;;;;;;;;;4718658;28;38084;-48
2022/05/25 09:06:46;;;;;;;;;;;;;;;;;;4762630;28;37206;-47
2022/05/25 09:09:11;;;;;;;;;;;;;;;;;;4729465;28;41680;-46
2022/05/25 09:11:39;;;;;;;;;;;;;;;;;;4733394;28;36334;-45
2022/05/25 09:14:04;;;;;;;;;;;;;;;;;;4723400;28;26469;-46
2022/05/25 09:16:30;;;;;;;;;;;;;;;;;;4728699;28;27663;-47
2022/05/25 09:18:55;;;;;;;;;;;;;;;;;;4721165;28;29169;-48
2022/05/25 09:21:20;;;;;;;;;;;;;;;;;;4637158;28;22900;-47
2022/05/25 09:23:45;;;;;;;;;;;;;;;;;;4697968;28;30433;-46
2022/05/25 09:26:13;;;;;;;;;;;;;;;;;;4693970;28;39130;-46
2022/05/25 09:28:38;;;;;;;;;;;;;;;;;;4714990;28;25334;-46
2022/05/25 09:31:03;;;;;;;;;;;;;;;;;;4710509;28;36652;-48
2022/05/25 09:33:29;;;;;;;;;;;;;;;;;;4707846;28;31017;-46
2022/05/25 09:35:55;;;;;;;;;;;;;;;;;;4716566;28;32165;-47
2022/05/25 09:38:20;;;;;;;;;;;;;;;;;;4702644;28;29839;-46
2022/05/25 09:40:45;;;;;;;;;;;;;;;;;;4661524;28;36288;-47
2022/05/25 09:43:10;;;;;;;;;;;;;;;;;;4653346;28;25977;-49
2022/05/25 09:45:35;;;;;;;;;;;;;;;;;;4612358;28;27847;-48
2022/05/25 09:48:01;;;;;;;;;;;;;;;;;;4658579;28;35438;-47
2022/05/25 09:50:26;;;;;;;;;;;;;;;;;;4653647;28;33719;-46
2022/05/25 09:52:51;;;;;;;;;;;;;;;;;;4711996;28;24636;-47
2022/05/25 09:55:16;;;;;;;;;;;;;;;;;;4697623;28;30201;-46
2022/05/25 09:57:41;;;;;;;;;;;;;;;;;;4606183;28;35261;-49
2022/05/25 10:00:06;;;;;;;;;;;;;;;;;;4587765;28;40817;-48
2022/05/25 10:02:31;;;;;;;;;;;;;;;;;;4600219;28;36591;-46
2022/05/25 10:05:15;;;;;;;;;;;;;;;;;;4645963;28;37717;-46
2022/05/25 10:07:42;;;;;;;;;;;;;;;;;;4640524;28;26642;-45
2022/05/25 10:10:07;;;;;;;;;;;;;;;;;;4504828;28;21047;-49
2022/05/25 10:12:32;;;;;;;;;;;;;;;;;;4432727;28;42732;-46
2022/05/25 10:14:57;;;;;;;;;;;;;;;;;;4389864;28;21740;-46
2022/05/25 10:17:22;;;;;;;;;;;;;;;;;;4492388;28;36205;-47
2022/05/25 10:19:47;;;;;;;;;;;;;;;;;;4607582;28;19947;-48
2022/05/25 10:22:13;;;;;;;;;;;;;;;;;;4640498;28;39839;-47
2022/05/25 10:24:40;;;;;;;;;;;;;;;;;;4666541;28;36687;-46
2022/05/25 10:27:05;;;;;;;;;;;;;;;;;;4729982;28;36886;-46
2022/05/25 10:37:26;;;;;;;;;;;;;;;;;;4635431;28;31971;-47
2022/05/25 10:39:52;;;;;;;;;;;;;;;;;;4610832;28;38586;-49
2022/05/25 10:42:17;;;;;;;;;;;;;;;;;;4642370;28;35025;-47
2022/05/25 10:44:42;;;;;;;;;;;;;;;;;;4722731;28;23298;-48
2022/05/25 10:47:08;;;;;;;;;;;;;;;;;;4738434;28;38504;-49
2022/05/25 10:49:33;;;;;;;;;;;;;;;;;;4754302;28;38475;-50
2022/05/25 10:51:58;;;;;;;;;;;;;;;;;;4754107;28;23043;-48
2022/05/25 10:57:07;;;;;;;;;;;;;;;;;;4745977;28;30533;-46
2022/05/25 10:59:32;;;;;;;;;;;;;;;;;;4685466;28;40011;-46
2022/05/25 11:01:57;;;;;;;;;;;;;;;;;;4705201;28;33921;-47
2022/05/25 11:04:22;;;;;;;;;;;;;;;;;;4708462;28;19921;-48
2022/05/25 11:06:48;;;;;;;;;;;;;;;;;;4703877;28;42258;-49
2022/05/25 11:09:13;;;;;;;;;;;;;;;;;;4695712;28;37438;-47
2022/05/25 11:11:38;;;;;;;;;;;;;;;;;;4717334;28;20127;-46
2022/05/25 11:14:03;;;;;;;;;;;;;;;;;;4746859;28;20247;-46
2022/05/25 11:16:29;;;;;;;;;;;;;;;;;;4766057;28;22376;-46
2022/05/25 11:18:54;;;;;;;;;;;;;;;;;;4782154;28;21604;-47
2022/05/25 11:21:20;;;;;;;;;;;;;;;;;;4785705;28;23956;-47
2022/05/25 11:23:45;;;;;;;;;;;;;;;;;;4762172;28;19921;-48
2022/05/25 11:26:10;;;;;;;;;;;;;;;;;;4775582;28;19967;-48
2022/05/25 11:28:35;;;;;;;;;;;;;;;;;;4763324;28;20437;-48
2022/05/25 11:31:00;;;;;;;;;;;;;;;;;;4653363;28;20398;-47
2022/05/25 11:33:25;;;;;;;;;;;;;;;;;;4598518;28;22858;-48
2022/05/25 11:35:51;;;;;;;;;;;;;;;;;;4690124;28;36459;-49
2022/05/25 11:38:18;;;;;;;;;;;;;;;;;;4698599;28;30711;-49
2022/05/25 11:40:43;;;;;;;;;;;;;;;;;;4836314;28;19964;-48
2022/05/25 11:43:09;;;;;;;;;;;;;;;;;;4770156;28;25932;-48
2022/05/25 11:45:34;;;;;;;;;;;;;;;;;;4773928;28;20630;-46
2022/05/25 11:47:59;;;;;;;;;;;;;;;;;;4802319;28;29793;-47
2022/05/25 11:50:24;;;;;;;;;;;;;;;;;;4780372;28;25404;-46
2022/05/25 11:52:50;;;;;;;;;;;;;;;;;;4793674;28;26476;-45
2022/05/25 11:55:15;;;;;;;;;;;;;;;;;;4756156;28;22164;-46
2022/05/25 11:57:40;;;;;;;;;;;;;;;;;;4724644;28;22311;-45
2022/05/25 12:00:06;;;;;;;;;;;;;;;;;;4761911;28;21002;-46
2022/05/25 12:02:31;;;;;;;;;;;;;;;;;;4770997;28;20523;-46
2022/05/25 12:04:56;;;;;;;;;;;;;;;;;;4750996;28;25269;-47
2022/05/25 12:07:21;;;;;;;;;;;;;;;;;;4766305;28;19925;-49
2022/05/25 12:09:46;;;;;;;;;;;;;;;;;;4754659;28;19959;-46
2022/05/25 12:12:12;;;;;;;;;;;;;;;;;;4716110;28;23888;-46
2022/05/25 12:14:37;;;;;;;;;;;;;;;;;;4693938;28;30224;-46
2022/05/25 12:17:02;;;;;;;;;;;;;;;;;;4756509;28;22399;-48
2022/05/25 12:19:27;;;;;;;;;;;;;;;;;;4739218;28;20663;-47
2022/05/25 12:21:53;;;;;;;;;;;;;;;;;;4688800;28;20584;-48
2022/05/25 12:24:18;;;;;;;;;;;;;;;;;;4610313;28;21418;-46
2022/05/25 12:26:43;;;;;;;;;;;;;;;;;;4651758;28;27288;-47
2022/05/25 12:29:08;;;;;;;;;;;;;;;;;;4704401;28;30039;-47
2022/05/25 12:31:34;;;;;;;;;;;;;;;;;;4759742;28;24590;-47
2022/05/25 12:33:59;;;;;;;;;;;;;;;;;;4774277;28;22108;-49
2022/05/25 12:36:24;;;;;;;;;;;;;;;;;;4807552;28;28605;-49
2022/05/25 12:38:51;;;;;;;;;;;;;;;;;;4810861;28;20992;-48
2022/05/25 12:41:16;;;;;;;;;;;;;;;;;;4820215;28;21174;-47
2022/05/25 12:43:41;;;;;;;;;;;;;;;;;;4845219;28;19932;-46
2022/05/25 12:48:50;;;;;;;;;;;;;;;;;;4797955;28;44708;-49
2022/05/25 12:51:15;;;;;;;;;;;;;;;;;;4819811;28;21962;-48
2022/05/25 12:53:40;;;;;;;;;;;;;;;;;;4811175;28;21960;-47
2022/05/25 12:56:05;;;;;;;;;;;;;;;;;;4781901;28;22399;-46
2022/05/25 12:58:31;;;;;;;;;;;;;;;;;;4798746;28;20005;-48
2022/05/25 13:00:56;;;;;;;;;;;;;;;;;;4823697;28;22937;-46
2022/05/25 13:03:21;;;;;;;;;;;;;;;;;;4820025;28;22682;-46
2022/05/25 13:05:46;;;;;;;;;;;;;;;;;;4783182;28;21160;-46
2022/05/25 13:08:11;;;;;;;;;;;;;;;;;;4785588;28;23205;-45
2022/05/25 13:10:36;;;;;;;;;;;;;;;;;;4768381;28;21370;-48
2022/05/25 13:13:04;;;;;;;;;;;;;;;;;;4751233;28;24548;-47
2022/05/25 13:15:30;;;;;;;;;;;;;;;;;;4816855;28;20572;-47
2022/05/25 13:17:55;;;;;;;;;;;;;;;;;;4822023;28;20761;-48
2022/05/25 13:20:20;;;;;;;;;;;;;;;;;;4817650;28;20071;-47
2022/05/25 13:22:45;;;;;;;;;;;;;;;;;;4858290;28;19921;-46
2022/05/25 13:25:10;;;;;;;;;;;;;;;;;;4887116;28;19944;-48
2022/05/25 13:27:35;;;;;;;;;;;;;;;;;;4928815;22;19981;-45
2022/05/25 13:30:02;;;;;;;;;;;;;;;;;;4944172;28;25995;-47
2022/05/25 13:32:28;;;;;;;;;;;;;;;;;;4931372;28;20002;-46
2022/05/25 13:34:53;;;;;;;;;;;;;;;;;;4932141;28;19924;-45
2022/05/25 13:37:18;;;;;;;;;;;;;;;;;;4924620;28;19921;-47
2022/05/25 13:39:43;;;;;;;;;;;;;;;;;;4947791;28;19920;-45
2022/05/25 13:42:08;;;;;;;;;;;;;;;;;;4951452;28;19920;-46
2022/05/25 13:44:33;;;;;;;;;;;;;;;;;;4951804;28;20047;-45
2022/05/25 13:46:58;;;;;;;;;;;;;;;;;;4936767;28;19921;-46
2022/05/25 13:49:24;;;;;;;;;;;;;;;;;;4913511;28;20579;-46
2022/05/25 13:51:49;;;;;;;;;;;;;;;;;;4933581;28;20632;-47
2022/05/25 13:54:14;;;;;;;;;;;;;;;;;;4936972;28;21660;-47
2022/05/25 13:56:39;;;;;;;;;;;;;;;;;;4924202;28;21996;-45
2022/05/25 13:59:04;;;;;;;;;;;;;;;;;;4890726;28;21802;-47
2022/05/25 14:01:29;;;;;;;;;;;;;;;;;;4894289;28;20126;-46
2022/05/25 14:03:54;;;;;;;;;;;;;;;;;;4912061;28;19921;-46
2022/05/25 14:06:20;;;;;;;;;;;;;;;;;;4913034;28;20055;-46
2022/05/25 14:11:29;;;;;;;;;;;;;;;;;;4975660;28;19943;-46
2022/05/25 14:13:54;;;;;;;;;;;;;;;;;;4941945;28;21467;-47
2022/05/25 14:16:19;;;;;;;;;;;;;;;;;;4960088;28;19974;-46
2022/05/25 14:18:44;;;;;;;;;;;;;;;;;;4955172;28;20702;-44
2022/05/25 14:21:09;;;;;;;;;;;;;;;;;;4998970;28;19928;-47
2022/05/25 14:23:34;;;;;;;;;;;;;;;;;;5007996;28;20359;-47
2022/05/25 14:25:59;;;;;;;;;;;;;;;;;;5002044;28;20527;-45
2022/05/25 14:28:24;;;;;;;;;;;;;;;;;;5008237;28;22132;-47
2022/05/25 14:30:50;;;;;;;;;;;;;;;;;;5024921;28;20387;-45
2022/05/25 14:33:15;;;;;;;;;;;;;;;;;;5011756;28;19932;-45
2022/05/25 14:35:40;;;;;;;;;;;;;;;;;;5015076;28;19998;-45
2022/05/25 14:38:05;;;;;;;;;;;;;;;;;;4992027;28;19975;-44
2022/05/25 14:40:30;;;;;;;;;;;;;;;;;;4968664;28;21606;-46
2022/05/25 14:42:55;;;;;;;;;;;;;;;;;;4965600;28;20456;-46
2022/05/25 14:45:20;;;;;;;;;;;;;;;;;;4975329;28;20417;-46
2022/05/25 14:47:46;;;;;;;;;;;;;;;;;;5005646;28;19921;-48
2022/05/25 14:50:11;;;;;;;;;;;;;;;;;;5000563;28;19979;-44
2022/05/25 14:52:36;;;;;;;;;;;;;;;;;;4993608;28;19920;-47
2022/05/25 14:55:01;;;;;;;;;;;;;;;;;;4995233;28;19943;-45
2022/05/25 14:57:26;;;;;;;;;;;;;;;;;;5025343;28;19950;-46
2022/05/25 14:59:52;;;;;;;;;;;;;;;;;;5014596;28;21687;-47
2022/05/25 15:02:17;;;;;;;;;;;;;;;;;;5029031;28;19928;-45
2022/05/25 15:04:43;;;;;;;;;;;;;;;;;;5030379;28;19917;-45
2022/05/25 15:07:08;;;;;;;;;;;;;;;;;;5025855;28;19964;-44
2022/05/25 15:09:33;;;;;;;;;;;;;;;;;;5031992;28;20084;-46
2022/05/25 15:11:58;;;;;;;;;;;;;;;;;;5031597;28;20302;-46
2022/05/25 15:19:51;;;;;;;;;;;;;;;;;;5048308;28;20279;-46
2022/05/25 15:22:16;;;;;;;;;;;;;;;;;;5050610;28;19913;-45
2022/05/25 15:24:41;;;;;;;;;;;;;;;;;;5049416;28;19927;-47
2022/05/25 15:27:08;;;;;;;;;;;;;;;;;;5048664;28;19913;-46
2022/05/25 15:29:35;;;;;;;;;;;;;;;;;;5052210;28;19939;-46
2022/05/25 15:32:00;;;;;;;;;;;;;;;;;;5055409;28;20469;-47
2022/05/25 15:34:25;;;;;;;;;;;;;;;;;;5057122;28;19917;-46
2022/05/25 15:36:50;;;;;;;;;;;;;;;;;;5058848;28;19912;-46
2022/05/25 15:39:16;;;;;;;;;;;;;;;;;;5053803;28;19925;-46
2022/05/25 15:41:41;;;;;;;;;;;;;;;;;;5055278;28;19913;-45
2022/05/25 15:44:06;;;;;;;;;;;;;;;;;;5054532;28;19925;-45
2022/05/25 15:46:31;;;;;;;;;;;;;;;;;;5053319;28;19913;-45
2022/05/25 15:48:56;;;;;;;;;;;;;;;;;;5049806;28;19925;-45
2022/05/25 15:51:22;;;;;;;;;;;;;;;;;;5057952;28;19935;-45
2022/05/25 15:53:48;;;;;;;;;;;;;;;;;;5056590;28;19917;-45
2022/05/25 15:56:15;;;;;;;;;;;;;;;;;;5055896;28;19963;-46
2022/05/25 15:58:40;;;;;;;;;;;;;;;;;;5056147;28;19913;-45
2022/05/25 16:01:06;;;;;;;;;;;;;;;;;;5053715;28;20313;-46
2022/05/25 16:03:31;;;;;;;;;;;;;;;;;;5056222;28;19913;-46
2022/05/25 16:05:58;;;;;;;;;;;;;;;;;;5057224;28;19912;-42
2022/05/25 16:11:09;;;;;;;;;;;;;;;;;;5056474;28;19971;-43
2022/05/25 16:13:36;;;;;;;;;;;;;;;;;;5056295;28;19912;-42
2022/05/25 16:16:04;;;;;;;;;;;;;;;;;;5056310;28;19915;-44
2022/05/25 16:18:29;;;;;;;;;;;;;;;;;;5056365;28;19916;-42
2022/05/25 16:20:55;;;;;;;;;;;;;;;;;;5056329;28;19909;-43
2022/05/25 16:23:20;;;;;;;;;;;;;;;;;;5056470;28;19916;-42
2022/05/25 16:25:46;;;;;;;;;;;;;;;;;;5056127;28;20394;-42
2022/05/25 16:28:11;;;;;;;;;;;;;;;;;;5056142;28;19917;-42
2022/05/25 16:30:36;;;;;;;;;;;;;;;;;;5056037;28;20326;-42
2022/05/25 16:33:02;;;;;;;;;;;;;;;;;;5056155;28;19908;-42
2022/05/25 16:35:29;;;;;;;;;;;;;;;;;;5055737;28;19913;-42
2022/05/25 16:37:54;;;;;;;;;;;;;;;;;;5056308;28;19963;-42
2022/05/25 16:40:19;;;;;;;;;;;;;;;;;;5055171;28;19913;-41
2022/05/25 16:42:47;;;;;;;;;;;;;;;;;;5055995;28;19974;-42
2022/05/25 16:45:12;;;;;;;;;;;;;;;;;;5055064;28;19909;-42
2022/05/25 16:47:38;;;;;;;;;;;;;;;;;;5056002;28;19916;-43
2022/05/25 16:50:05;;;;;;;;;;;;;;;;;;5055878;28;19913;-43
2022/05/25 16:52:30;;;;;;;;;;;;;;;;;;5055877;28;20023;-43
2022/05/25 16:54:57;;;;;;;;;;;;;;;;;;5055940;28;19975;-43
2022/05/25 16:57:25;;;;;;;;;;;;;;;;;;5056037;28;19909;-43
2022/05/25 16:59:53;;;;;;;;;;;;;;;;;;5056024;28;19932;-42
2022/05/25 17:02:18;;;;;;;;;;;;;;;;;;5055970;28;19944;-42
2022/05/25 17:04:46;;;;;;;;;;;;;;;;;;5056050;28;20429;-42
2022/05/25 17:07:14;;;;;;;;;;;;;;;;;;5056085;28;19939;-42
2022/05/25 17:09:39;;;;;;;;;;;;;;;;;;5055978;28;20007;-43
2022/05/25 17:12:07;;;;;;;;;;;;;;;;;;5056023;28;19971;-43
2022/05/25 17:14:33;;;;;;;;;;;;;;;;;;5055925;28;19915;-42